Time;durP1;ratioP1;P1;durP2;ratioP2;P2;SDS_P1;SDS_P2;PMS_P1;PMS_P2;Temp;Humidity;BMP_temperature;BMP_pressure;BME280_temperature;BME280_humidity;BME280_pressure;Samples;Min_cycle;Max_cycle;Signal;HPM_P1;HPM_P2
2023/10/24 00:01:37;;;;;;;10.50;6.35;;;;;;;20.63;53.78;100431.39;2299004;76;50415;-72
2023/10/24 00:04:40;;;;;;;12.80;6.45;;;;;;;20.63;53.74;100428.70;2273452;76;51431;-72
2023/10/24 00:07:42;;;;;;;11.65;6.22;;;;;;;20.62;53.71;100431.05;2298724;76;52487;-71
2023/10/24 00:10:44;;;;;;;12.70;6.95;;;;;;;20.59;53.75;100423.40;2298534;76;50611;-72
2023/10/24 00:13:46;;;;;;;10.05;6.35;;;;;;;20.57;53.77;100422.77;2298552;76;51451;-71
2023/10/24 00:16:49;;;;;;;11.93;6.78;;;;;;;20.54;53.82;100416.95;2298766;76;50935;-73
2023/10/24 00:19:51;;;;;;;12.85;7.08;;;;;;;20.50;53.90;100409.81;2299035;76;50105;-73
2023/10/24 00:22:53;;;;;;;13.13;6.15;;;;;;;20.52;53.92;100410.41;2323933;76;50629;-72
2023/10/24 00:25:55;;;;;;;11.28;6.22;;;;;;;20.56;53.90;100402.83;2271924;76;51462;-73
2023/10/24 00:28:57;;;;;;;11.15;5.85;;;;;;;20.61;53.85;100399.84;2324316;74;51636;-73
2023/10/24 00:32:00;;;;;;;9.53;5.67;;;;;;;20.64;53.73;100392.70;2298798;76;50809;-73
2023/10/24 00:35:02;;;;;;;11.73;5.78;;;;;;;20.65;53.65;100384.98;2298901;76;51433;-73
2023/10/24 00:38:04;;;;;;;9.53;5.60;;;;;;;20.64;53.62;100382.48;2298984;75;51597;-74
2023/10/24 00:41:07;;;;;;;9.05;5.72;;;;;;;20.63;53.60;100378.14;2298485;76;51522;-72
2023/10/24 00:44:09;;;;;;;10.68;5.95;;;;;;;20.60;53.62;100363.73;2297089;76;51546;-72
2023/10/24 00:47:11;;;;;;;10.72;5.72;;;;;;;20.59;53.64;100352.69;2325066;76;51531;-73
2023/10/24 00:50:13;;;;;;;12.47;5.85;;;;;;;20.57;53.63;100352.05;2325884;76;50320;-74
2023/10/24 00:53:16;;;;;;;9.13;5.28;;;;;;;20.55;53.63;100343.36;2325022;76;51552;-75
2023/10/24 00:56:18;;;;;;;11.78;6.47;;;;;;;20.53;53.71;100338.17;2323837;75;52535;-74
2023/10/24 00:59:21;;;;;;;11.08;6.28;;;;;;;20.55;53.74;100344.70;2325632;76;50716;-72
2023/10/24 01:02:23;;;;;;;10.88;5.55;;;;;;;20.59;53.74;100340.06;2325515;75;50443;-72
2023/10/24 01:05:25;;;;;;;10.43;5.50;;;;;;;20.62;53.66;100326.73;2299120;76;50727;-73
2023/10/24 01:08:28;;;;;;;9.60;5.47;;;;;;;20.66;53.53;100331.50;2313362;76;51457;-73
2023/10/24 01:11:30;;;;;;;7.75;5.20;;;;;;;20.64;53.49;100318.78;2286126;76;51452;-73
2023/10/24 01:14:32;;;;;;;10.18;5.53;;;;;;;20.65;53.43;100320.94;2337112;76;51484;-73
2023/10/24 01:17:35;;;;;;;10.15;5.15;;;;;;;20.64;53.39;100313.40;2337190;76;51518;-73
2023/10/24 01:20:39;;;;;;;10.25;5.55;;;;;;;20.61;53.44;100309.78;2337360;75;51631;-72
2023/10/24 01:23:43;;;;;;;8.95;5.17;;;;;;;20.59;53.49;100312.36;2286792;76;50419;-73
2023/10/24 01:26:45;;;;;;;10.30;5.37;;;;;;;20.57;53.53;100310.39;2324876;76;51562;-72
2023/10/24 01:29:47;;;;;;;10.35;5.37;;;;;;;20.55;53.58;100309.77;2298506;76;51727;-72
2023/10/24 01:32:49;;;;;;;8.40;5.00;;;;;;;20.52;53.66;100316.86;2298529;76;51270;-73
2023/10/24 01:35:52;;;;;;;9.48;4.78;;;;;;;20.54;53.69;100308.94;2298866;76;50241;-73
2023/10/24 01:38:54;;;;;;;7.78;5.53;;;;;;;20.61;53.61;100299.55;2298559;76;51572;-73
2023/10/24 01:41:56;;;;;;;8.48;5.15;;;;;;;20.62;53.50;100286.41;2325173;76;51524;-73
2023/10/24 01:44:58;;;;;;;9.23;4.75;;;;;;;20.63;53.42;100283.53;2325318;75;51559;-73
2023/10/24 01:48:01;;;;;;;9.65;5.70;;;;;;;20.63;53.40;100278.67;2325412;76;50620;-72
2023/10/24 01:51:03;;;;;;;7.10;4.85;;;;;;;20.62;53.38;100285.89;2325517;76;51534;-73
2023/10/24 01:54:05;;;;;;;7.87;5.00;;;;;;;20.60;53.39;100287.98;2298280;76;52585;-73
2023/10/24 01:57:08;;;;;;;7.05;4.90;;;;;;;20.56;53.47;100287.24;2297545;76;50658;-73
2023/10/24 02:00:11;;;;;;;7.45;5.05;;;;;;;20.55;53.49;100292.29;2323645;76;50312;-73
2023/10/24 02:03:13;;;;;;;11.22;5.78;;;;;;;20.52;53.56;100281.92;2285540;77;50424;-73
2023/10/24 02:06:15;;;;;;;8.35;4.72;;;;;;;20.51;53.61;100273.03;2260918;77;51470;-74
2023/10/24 02:09:17;;;;;;;7.28;4.95;;;;;;;20.55;53.57;100263.58;2236168;77;51670;-73
2023/10/24 02:12:19;;;;;;;6.62;4.40;;;;;;;20.58;53.54;100256.96;2260566;77;51438;-74
2023/10/24 02:15:22;;;;;;;7.55;4.85;;;;;;;20.62;53.46;100262.22;2260855;77;50603;-73
2023/10/24 02:18:24;;;;;;;8.13;4.65;;;;;;;20.65;53.34;100265.34;2291534;76;52392;-74
2023/10/24 02:21:26;;;;;;;8.95;5.17;;;;;;;20.64;53.31;100266.36;2297322;76;51446;-73
2023/10/24 02:24:28;;;;;;;8.85;5.42;;;;;;;20.61;53.32;100262.74;2297977;76;51513;-74
2023/10/24 02:27:32;;;;;;;7.55;4.45;;;;;;;20.61;53.31;100256.55;2301483;76;51448;-74
2023/10/24 02:30:38;;;;;;;7.30;4.83;;;;;;;20.58;53.32;100255.09;2326648;76;50869;-72
2023/10/24 02:33:41;;;;;;;7.85;4.47;;;;;;;20.56;53.38;100255.81;2328181;76;51745;-73
2023/10/24 02:36:43;;;;;;;5.65;4.30;;;;;;;20.53;53.41;100261.57;2302275;76;49840;-73
2023/10/24 02:39:45;;;;;;;7.30;4.20;;;;;;;20.52;53.47;100259.08;2326780;76;51569;-72
2023/10/24 02:42:47;;;;;;;7.72;4.22;;;;;;;20.54;53.50;100252.98;2301888;76;51090;-72
2023/10/24 02:45:50;;;;;;;9.68;4.28;;;;;;;20.58;53.48;100264.50;2286027;76;50595;-72
2023/10/24 02:48:52;;;;;;;7.50;4.30;;;;;;;20.63;53.37;100262.03;2296192;76;49789;-72
2023/10/24 02:51:54;;;;;;;7.28;4.10;;;;;;;20.64;53.31;100270.39;2275341;76;49932;-72
2023/10/24 02:54:57;;;;;;;6.22;4.65;;;;;;;20.66;53.25;100274.23;2327866;76;50632;-73
2023/10/24 02:57:59;;;;;;;6.65;4.40;;;;;;;20.66;53.21;100276.39;2298478;76;52413;-73
2023/10/24 03:01:04;;;;;;;6.75;4.40;;;;;;;20.65;53.21;100274.75;2298860;76;49987;-73
2023/10/24 03:04:07;;;;;;;7.47;4.90;;;;;;;20.63;53.24;100265.23;2325377;76;50459;-73
2023/10/24 03:07:09;;;;;;;9.85;4.80;;;;;;;20.59;53.30;100264.80;2298910;76;51572;-72
2023/10/24 03:10:11;;;;;;;8.98;4.30;;;;;;;20.55;53.35;100258.20;2298627;76;50718;-72
2023/10/24 03:13:13;;;;;;;7.37;4.42;;;;;;;20.53;53.40;100251.34;2298381;76;51464;-72
2023/10/24 03:16:16;;;;;;;7.50;4.05;;;;;;;20.53;53.46;100254.85;2298658;76;51495;-72
2023/10/24 03:19:18;;;;;;;7.05;4.33;;;;;;;20.56;53.43;100255.81;2286600;77;50685;-75
2023/10/24 03:22:21;;;;;;;8.43;4.42;;;;;;;20.61;53.38;100249.30;2227978;76;52478;-73
2023/10/24 03:25:27;;;;;;;6.25;4.15;;;;;;;20.64;53.28;100254.26;2295800;76;50342;-73
2023/10/24 03:28:29;;;;;;;5.92;4.20;;;;;;;20.64;53.24;100258.30;2323517;76;51488;-73
2023/10/24 03:31:31;;;;;;;6.00;3.90;;;;;;;20.63;53.21;100255.30;2296855;76;50292;-73
2023/10/24 03:34:39;;;;;;;6.28;4.10;;;;;;;20.63;53.19;100239.17;2297083;76;50211;-73
2023/10/24 03:37:38;;;;;;;;;;;;;;;20.61;53.22;100240.42;2326403;76;23310;-73
2023/10/24 03:40:41;;;;;;;7.75;4.55;;;;;;;20.60;53.24;100230.67;2271393;76;51986;-73
2023/10/24 03:43:48;;;;;;;6.70;4.37;;;;;;;20.58;53.25;100222.02;2296754;76;50348;-73
2023/10/24 03:46:47;;;;;;;4.92;3.83;;;;;;;20.54;53.31;100222.92;2297706;76;22393;-74
2023/10/24 03:49:49;;;;;;;5.53;4.03;;;;;;;20.53;53.39;100211.84;2300020;76;51568;-74
2023/10/24 03:52:51;;;;;;;6.83;3.98;;;;;;;20.55;53.38;100206.28;2298710;76;51498;-73
2023/10/24 03:55:58;;;;;;;6.80;4.17;;;;;;;20.60;53.38;100215.41;2273686;76;52568;-73
2023/10/24 03:59:00;;;;;;;5.95;3.90;;;;;;;20.62;53.33;100222.72;2287017;76;50711;-73
2023/10/24 04:02:03;;;;;;;7.28;3.90;;;;;;;20.65;53.21;100212.92;2273128;76;51662;-73
2023/10/24 04:05:06;;;;;;;7.08;3.75;;;;;;;20.66;53.15;100214.56;2270719;76;51152;-73
2023/10/24 04:08:09;;;;;;;5.50;3.80;;;;;;;20.64;53.16;100200.49;2297460;76;49941;-73
2023/10/24 04:11:15;;;;;;;6.33;3.70;;;;;;;20.63;53.18;100201.54;2297655;76;51518;-72
2023/10/24 04:14:18;;;;;;;8.00;4.00;;;;;;;20.61;53.21;100196.06;2291364;76;49991;-72
2023/10/24 04:17:20;;;;;;;7.62;4.03;;;;;;;20.58;53.24;100208.05;2273522;76;50741;-72
2023/10/24 04:20:22;;;;;;;6.85;4.30;;;;;;;20.55;53.26;100205.78;2325602;76;50738;-72
2023/10/24 04:23:24;;;;;;;5.37;3.98;;;;;;;20.53;53.32;100191.69;2289018;76;51506;-72
2023/10/24 04:26:26;;;;;;;9.83;3.80;;;;;;;20.55;53.40;100183.43;2323155;76;51367;-73
2023/10/24 04:29:31;;;;;;;5.15;3.83;;;;;;;20.58;53.53;100179.02;2296864;76;52496;-73
2023/10/24 04:32:32;;;;;;;6.70;3.75;;;;;;;20.62;53.50;100172.98;2298157;76;22421;-73
2023/10/24 04:35:47;;;;;;;7.83;3.87;;;;;;;20.62;53.50;100151.48;2298918;76;50249;-73
2023/10/24 04:38:48;;;;;;;11.22;4.33;;;;;;;20.61;53.50;100142.30;2325768;76;22479;-72
2023/10/24 04:41:50;;;;;;;9.25;3.92;;;;;;;20.60;53.68;100137.45;2273628;76;50332;-73
2023/10/24 04:44:53;;;;;;;11.53;4.60;;;;;;;20.58;53.79;100133.31;2260434;77;51170;-72
2023/10/24 04:47:55;;;;;;;10.78;3.90;;;;;;;20.56;53.82;100136.20;2249443;76;51580;-73
2023/10/24 04:50:58;;;;;;;12.13;4.25;;;;;;;20.55;53.85;100141.77;2299403;76;50320;-74
2023/10/24 04:54:00;;;;;;;9.88;4.15;;;;;;;20.51;53.91;100148.58;2285677;76;52608;-73
2023/10/24 04:57:02;;;;;;;9.15;4.03;;;;;;;20.50;53.95;100156.32;2325620;74;50309;-72
2023/10/24 05:00:06;;;;;;;15.93;4.08;;;;;;;20.53;54.04;100166.68;2299215;75;51475;-74
2023/10/24 05:03:08;;;;;;;10.95;4.28;;;;;;;20.56;54.04;100180.55;2260191;77;50184;-74
2023/10/24 05:06:12;;;;;;;12.13;4.83;;;;;;;20.60;54.30;100169.70;2318478;76;51408;-74
2023/10/24 05:09:16;;;;;;;11.65;4.50;;;;;;;20.63;54.30;100165.25;2337992;76;50853;-74
2023/10/24 05:12:18;;;;;;;11.15;4.67;;;;;;;20.64;54.46;100150.77;2329175;76;52498;-75
2023/10/24 05:15:20;;;;;;;9.33;4.15;;;;;;;20.65;54.72;100134.96;2300443;76;52198;-73
2023/10/24 05:18:22;;;;;;;14.83;4.65;;;;;;;20.65;54.51;100124.70;2313367;76;52294;-73
2023/10/24 05:21:25;;;;;;;10.88;4.05;;;;;;;20.62;54.55;100132.66;2313486;76;50186;-73
2023/10/24 05:24:27;;;;;;;14.28;4.03;;;;;;;20.61;54.58;100137.75;2336058;74;50392;-73
2023/10/24 05:27:31;;;;;;;12.82;4.50;;;;;;;20.61;54.64;100143.64;2242027;77;51628;-73
2023/10/24 05:30:33;;;;;;;11.63;4.40;;;;;;;20.57;54.74;100136.50;2261444;77;51551;-73
2023/10/24 05:33:36;;;;;;;12.13;4.60;;;;;;;20.60;54.85;100137.45;2286722;77;50276;-73
2023/10/24 05:36:38;;;;;;;13.40;4.67;;;;;;;20.63;54.81;100125.45;2236527;77;51137;-74
2023/10/24 05:39:40;;;;;;;14.28;4.37;;;;;;;20.67;54.83;100110.53;2286901;77;51540;-75
2023/10/24 05:42:44;;;;;;;14.58;4.33;;;;;;;20.68;54.88;100111.36;2260893;77;51551;-73
2023/10/24 05:45:46;;;;;;;13.20;4.60;;;;;;;20.67;54.88;100115.91;2261232;77;51499;-73
2023/10/24 05:48:48;;;;;;;14.18;4.62;;;;;;;20.68;54.80;100118.08;2260993;77;50620;-73
2023/10/24 05:51:52;;;;;;;11.40;4.40;;;;;;;20.66;54.84;100123.69;2286292;76;50986;-72
2023/10/24 05:54:54;;;;;;;18.42;4.83;;;;;;;20.64;55.06;100122.53;2278661;76;50684;-74
2023/10/24 05:57:56;;;;;;;13.53;4.75;;;;;;;20.63;54.86;100118.20;2313188;74;51561;-74
2023/10/24 06:00:58;;;;;;;14.73;4.75;;;;;;;20.63;54.95;100109.33;2339689;75;52399;-75
2023/10/24 06:04:00;;;;;;;22.82;5.53;;;;;;;20.61;55.24;100106.83;2313167;76;50268;-72
2023/10/24 06:07:03;;;;;;;24.45;5.50;;;;;;;20.66;55.22;100112.93;2313440;76;50258;-74
2023/10/24 06:10:06;;;;;;;21.02;4.97;;;;;;;20.72;55.32;100104.02;2313571;76;50024;-74
2023/10/24 06:13:09;;;;;;;19.15;5.08;;;;;;;20.78;55.09;100091.58;2310559;76;50499;-75
2023/10/24 06:16:13;;;;;;;20.10;6.15;;;;;;;20.75;55.08;100066.47;2298875;76;49335;-76
2023/10/24 06:19:15;;;;;;;26.12;5.55;;;;;;;20.73;55.05;100064.02;2332497;75;50512;-75
2023/10/24 06:22:17;;;;;;;25.30;5.17;;;;;;;20.73;55.02;100060.47;2286425;76;50347;-76
2023/10/24 06:25:19;;;;;;;17.12;5.10;;;;;;;20.71;55.01;100053.98;2275524;76;51661;-76
2023/10/24 06:28:22;;;;;;;18.25;4.67;;;;;;;20.66;55.05;100047.89;2324422;76;51423;-76
2023/10/24 06:31:26;;;;;;;22.20;5.50;;;;;;;20.66;55.08;100055.95;2323899;76;50688;-75
2023/10/24 06:34:28;;;;;;;19.10;5.47;;;;;;;20.64;55.05;100050.48;2323569;76;23353;-74
2023/10/24 06:37:30;;;;;;;16.32;4.58;;;;;;;20.63;55.20;100028.68;2323727;76;52398;-74
2023/10/24 06:40:32;;;;;;;16.07;4.42;;;;;;;20.62;55.26;100025.14;2273604;76;52464;-74
2023/10/24 06:43:35;;;;;;;19.05;5.20;;;;;;;20.68;55.21;100020.80;2298815;76;50150;-74
2023/10/24 06:46:37;;;;;;;17.85;4.62;;;;;;;20.72;55.07;100021.19;2299240;76;50790;-74
2023/10/24 06:49:39;;;;;;;17.55;4.40;;;;;;;20.69;55.07;100030.52;2272761;76;50356;-75
2023/10/24 06:52:42;;;;;;;17.17;4.50;;;;;;;20.68;55.07;100032.91;2298858;76;50624;-75
2023/10/24 06:55:44;;;;;;;20.05;4.45;;;;;;;20.66;55.06;100024.22;2332509;76;51517;-74
2023/10/24 06:58:46;;;;;;;18.62;4.97;;;;;;;20.61;55.09;100023.50;2286297;76;50296;-74
2023/10/24 07:01:50;;;;;;;20.20;4.65;;;;;;;20.61;55.08;100026.19;2313226;76;50265;-74
2023/10/24 07:04:52;;;;;;;13.68;4.67;;;;;;;20.60;55.07;100035.30;2264131;77;51693;-74
2023/10/24 07:07:54;;;;;;;15.32;4.55;;;;;;;20.59;55.03;100030.95;2286844;76;50668;-74
2023/10/24 07:10:56;;;;;;;15.23;4.80;;;;;;;20.60;55.12;100039.83;2261029;77;49906;-74
2023/10/24 07:13:58;;;;;;;16.48;4.87;;;;;;;20.63;55.12;100040.25;2260505;76;49815;-74
2023/10/24 07:17:01;;;;;;;15.00;5.10;;;;;;;20.66;55.14;100034.45;2260651;77;50041;-74
2023/10/24 07:20:04;;;;;;;16.42;4.90;;;;;;;20.70;55.02;100037.52;2289703;76;50217;-74
2023/10/24 07:23:06;;;;;;;16.95;4.90;;;;;;;20.72;54.95;100033.30;2302169;76;50313;-74
2023/10/24 07:26:09;;;;;;;15.85;4.72;;;;;;;20.71;54.92;100027.09;2300462;76;51520;-74
2023/10/24 07:29:11;;;;;;;20.50;5.60;;;;;;;20.69;54.95;100020.28;2250938;76;51717;-74
2023/10/24 07:32:16;;;;;;;19.55;5.28;;;;;;;20.68;54.93;100003.83;2326385;75;51554;-74
2023/10/24 07:35:19;;;;;;;13.75;5.15;;;;;;;20.66;54.96;100006.74;2326696;76;51562;-74
2023/10/24 07:38:21;;;;;;;15.20;5.10;;;;;;;20.65;54.95;99997.86;2302456;76;49993;-74
2023/10/24 07:41:23;;;;;;;17.45;5.37;;;;;;;20.62;55.01;100010.88;2326786;75;50788;-74
2023/10/24 07:44:26;;;;;;;15.90;5.22;;;;;;;20.63;54.95;100013.37;2302266;76;51651;-74
2023/10/24 07:47:28;;;;;;;15.23;5.47;;;;;;;20.63;55.04;100012.02;2276011;76;51417;-75
2023/10/24 07:50:31;;;;;;;20.72;5.87;;;;;;;20.66;55.04;100031.76;2302472;76;51604;-75
2023/10/24 07:53:33;;;;;;;16.37;5.33;;;;;;;20.71;55.02;100022.25;2253212;76;51718;-74
2023/10/24 07:56:36;;;;;;;19.10;5.87;;;;;;;20.72;54.89;100017.16;2287211;77;51527;-74
2023/10/24 07:59:39;;;;;;;15.55;5.15;;;;;;;20.73;54.86;100016.11;2261275;77;49938;-75
2023/10/24 08:02:41;;;;;;;16.17;5.60;;;;;;;20.70;54.84;100010.64;2260776;77;50226;-75
2023/10/24 08:05:43;;;;;;;22.15;5.35;;;;;;;20.67;54.92;100016.45;2260952;77;50301;-75
2023/10/24 08:08:46;;;;;;;14.83;5.40;;;;;;;20.65;54.92;100019.37;2260997;77;50171;-75
2023/10/24 08:11:48;;;;;;;15.58;5.35;;;;;;;20.65;54.94;100023.89;2261000;77;51439;-74
2023/10/24 08:14:50;;;;;;;14.47;5.75;;;;;;;20.63;54.92;100018.75;2260839;77;50371;-74
2023/10/24 08:17:52;;;;;;;15.05;6.00;;;;;;;20.62;54.95;100009.02;2260996;77;51214;-74
2023/10/24 08:20:55;;;;;;;13.72;5.50;;;;;;;20.63;54.96;100003.14;2261147;77;51402;-74
2023/10/24 08:23:57;;;;;;;12.33;5.15;;;;;;;20.65;55.02;99999.20;2302870;76;50377;-74
2023/10/24 08:26:59;;;;;;;19.30;6.03;;;;;;;20.68;54.98;100002.48;2291524;76;51308;-74
2023/10/24 08:30:03;;;;;;;16.82;5.17;;;;;;;20.72;54.86;100010.44;2326614;76;50245;-73
2023/10/24 08:33:05;;;;;;;15.18;5.40;;;;;;;20.73;54.84;100001.33;2299552;76;51656;-74
2023/10/24 08:36:07;;;;;;;14.73;5.55;;;;;;;20.71;54.82;100004.25;2326179;75;50732;-74
2023/10/24 08:39:09;;;;;;;13.05;5.67;;;;;;;20.70;54.84;99993.16;2325878;76;51627;-73
2023/10/24 08:42:11;;;;;;;14.10;5.25;;;;;;;20.66;54.86;99989.27;2298743;76;52282;-75
2023/10/24 08:45:16;;;;;;;12.07;4.80;;;;;;;20.64;54.90;99993.50;2325642;75;51547;-74
2023/10/24 08:48:19;;;;;;;10.30;5.10;;;;;;;20.61;54.95;99992.59;2325891;76;50254;-74
2023/10/24 08:51:21;;;;;;;15.53;5.28;;;;;;;20.61;54.89;99995.28;2298814;76;50950;-74
2023/10/24 08:54:23;;;;;;;15.03;4.85;;;;;;;20.60;54.95;99975.31;2324999;76;50498;-74
2023/10/24 08:57:27;;;;;;;9.90;4.80;;;;;;;20.65;54.92;99966.95;2298817;76;50291;-75
2023/10/24 09:00:30;;;;;;;13.35;5.97;;;;;;;20.68;54.90;99969.73;2299457;76;51497;-74
2023/10/24 09:03:32;;;;;;;12.45;5.60;;;;;;;20.74;54.74;99954.60;2298924;76;50211;-74
2023/10/24 09:06:34;;;;;;;13.60;5.45;;;;;;;20.73;54.69;99965.88;2325644;76;50270;-75
2023/10/24 09:09:37;;;;;;;14.53;5.97;;;;;;;20.72;54.68;99960.18;2299461;76;50268;-75
2023/10/24 09:12:39;;;;;;;12.37;5.15;;;;;;;20.70;54.71;99964.94;2299230;76;50397;-75
2023/10/24 09:15:41;;;;;;;16.23;5.90;;;;;;;20.70;54.70;99966.81;2301094;76;51718;-75
2023/10/24 09:18:43;;;;;;;17.40;6.00;;;;;;;20.68;54.74;99975.11;2273974;76;51566;-75
2023/10/24 09:21:46;;;;;;;14.53;5.72;;;;;;;20.63;54.79;99966.33;2323857;76;51391;-75
2023/10/24 09:24:49;;;;;;;13.68;5.80;;;;;;;20.63;54.77;99964.17;2297315;76;51426;-74
2023/10/24 09:27:51;;;;;;;14.75;5.87;;;;;;;20.64;54.82;99963.94;2284798;77;51649;-75
2023/10/24 09:30:53;;;;;;;10.65;5.97;;;;;;;20.65;54.83;99962.06;2258886;78;50235;-75
2023/10/24 09:33:55;;;;;;;13.40;6.28;;;;;;;20.70;54.79;99966.81;2258651;77;50287;-75
2023/10/24 09:37:01;;;;;;;12.18;5.60;;;;;;;20.74;54.65;99958.11;2233122;78;50659;-74
2023/10/24 09:40:03;;;;;;;;;;;;;;;20.75;54.62;99954.89;2263438;77;51945;-74
2023/10/24 09:43:15;;;;;;;14.68;6.00;;;;;;;20.73;54.62;99954.28;2261145;77;51505;-75
2023/10/24 09:46:20;;;;;;;14.28;6.33;;;;;;;20.71;54.62;99957.72;2284603;77;51370;-74
2023/10/24 09:49:22;;;;;;;;;;;;;;;20.69;54.63;99958.45;2289659;77;50307;-75
2023/10/24 09:52:26;;;;;;;18.30;6.22;;;;;;;20.67;54.64;99953.27;2286583;77;50321;-73
2023/10/24 09:55:29;;;;;;;14.67;6.50;;;;;;;20.65;54.63;99944.09;2327034;76;51561;-74
2023/10/24 09:58:31;;;;;;;12.10;5.92;;;;;;;20.62;54.65;99947.19;2339610;76;51721;-73
2023/10/24 10:01:33;;;;;;;13.28;6.47;;;;;;;20.61;54.76;99946.08;2313206;76;50229;-74
2023/10/24 10:04:35;;;;;;;13.72;6.28;;;;;;;20.64;54.73;99945.12;2312895;76;50321;-75
2023/10/24 10:07:37;;;;;;;12.95;6.65;;;;;;;20.70;54.68;99931.86;2313384;76;50550;-75
2023/10/24 10:10:42;;;;;;;15.65;6.55;;;;;;;20.73;54.54;99933.63;2337820;76;50662;-75
2023/10/24 10:13:55;;;;;;;13.68;6.20;;;;;;;20.72;54.53;99927.92;2338178;75;22361;-74
2023/10/24 10:17:04;;;;;;;12.73;6.50;;;;;;;20.72;54.48;99924.41;2312239;76;50292;-73
2023/10/24 10:20:24;;;;;;;17.57;6.25;;;;;;;20.69;54.49;99921.63;2337050;76;51450;-74
2023/10/24 10:23:56;;;;;;;14.20;6.72;;;;;;;20.68;54.50;99920.00;2310159;76;52406;-74
2023/10/24 10:27:01;;;;;;;13.05;5.97;;;;;;;20.66;54.54;99907.28;2323901;76;50267;-73
2023/10/24 10:30:04;;;;;;;;;;;;;;;20.63;54.56;99907.19;2326083;76;50160;-74
2023/10/24 10:33:13;;;;;;;12.15;6.12;;;;;;;20.61;54.58;99909.27;2296908;76;51294;-73
2023/10/24 10:36:16;;;;;;;13.95;6.28;;;;;;;20.61;54.65;99902.55;2323777;76;50452;-74
2023/10/24 10:39:18;;;;;;;11.68;6.33;;;;;;;20.63;54.68;99897.78;2297696;76;50702;-75
2023/10/24 10:42:26;;;;;;;14.28;6.97;;;;;;;20.68;54.62;99878.33;2297326;76;51314;-75
2023/10/24 10:45:29;;;;;;;10.85;6.17;;;;;;;20.74;54.43;99880.14;2315198;76;51426;-74
2023/10/24 10:48:31;;;;;;;12.68;6.45;;;;;;;20.73;54.43;99892.45;2271329;76;52573;-74
2023/10/24 10:51:35;;;;;;;15.65;6.30;;;;;;;20.72;54.42;99897.53;2300307;76;50629;-74
2023/10/24 10:54:40;;;;;;;13.70;6.47;;;;;;;20.71;54.40;99904.77;2308705;76;51462;-73
2023/10/24 10:57:44;;;;;;;;;;;;;;;20.68;54.41;99903.87;2327386;76;51818;-74
2023/10/24 11:01:03;;;;;;;12.63;5.85;;;;;;;20.67;54.42;99902.20;2325241;74;51415;-74
2023/10/24 11:04:08;;;;;;;10.55;6.30;;;;;;;20.66;54.44;99896.00;2321775;74;52368;-73
2023/10/24 11:07:10;;;;;;;;;;;;;;;20.63;54.48;99890.25;2324780;76;50801;-75
2023/10/24 11:10:16;;;;;;;11.78;6.37;;;;;;;20.64;54.57;99894.57;2297873;76;50735;-74
2023/10/24 11:13:39;;;;;;;11.28;5.83;;;;;;;20.65;54.58;99880.92;2324475;76;50795;-75
2023/10/24 11:16:42;;;;;;;13.45;6.50;;;;;;;20.69;54.56;99873.77;2248296;76;51725;-74
2023/10/24 11:19:44;;;;;;;10.58;6.35;;;;;;;20.74;54.41;99876.64;2327684;76;50381;-74
2023/10/24 11:22:47;;;;;;;16.07;5.72;;;;;;;20.74;54.36;99874.77;2325960;76;50215;-76
2023/10/24 11:25:49;;;;;;;10.32;5.90;;;;;;;20.74;54.31;99872.60;2302659;76;50390;-75
2023/10/24 11:28:51;;;;;;;13.83;6.45;;;;;;;20.71;54.35;99871.17;2337710;76;50703;-73
2023/10/24 11:31:55;;;;;;;12.37;6.28;;;;;;;20.68;54.40;99862.70;2323193;76;51672;-73
2023/10/24 11:34:58;;;;;;;12.60;6.05;;;;;;;20.66;54.42;99861.06;2297725;76;51502;-75
2023/10/24 11:38:00;;;;;;;12.25;5.70;;;;;;;20.62;54.48;99855.80;2323831;76;50713;-74
2023/10/24 11:41:02;;;;;;;10.95;5.85;;;;;;;20.64;54.40;99851.04;2275995;77;52522;-75
2023/10/24 11:44:04;;;;;;;9.83;5.83;;;;;;;20.63;54.54;99840.52;2283808;77;51483;-75
2023/10/24 11:47:08;;;;;;;8.85;5.53;;;;;;;20.64;54.56;99844.31;2284353;77;50269;-74
2023/10/24 11:50:10;;;;;;;11.45;6.28;;;;;;;20.71;54.43;99838.91;2285229;77;51525;-73
2023/10/24 11:53:22;;;;;;;10.10;5.72;;;;;;;20.72;54.35;99849.95;2288815;76;50633;-74
2023/10/24 11:56:24;;;;;;;10.25;5.75;;;;;;;20.74;54.28;99850.57;2326666;76;51589;-73
2023/10/24 11:59:34;;;;;;;11.08;6.10;;;;;;;20.74;54.24;99847.06;2327342;76;49911;-74
2023/10/24 12:02:41;;;;;;;9.65;5.42;;;;;;;20.71;54.28;99856.39;2337234;76;50454;-74
2023/10/24 12:05:54;;;;;;;12.37;6.30;;;;;;;20.69;54.30;99857.64;2277748;76;51193;-74
2023/10/24 12:08:58;;;;;;;12.90;6.53;;;;;;;20.63;54.37;99866.88;2299242;76;52087;-74
2023/10/24 12:12:05;;;;;;;14.10;6.45;;;;;;;20.63;54.37;99873.59;2325547;76;50347;-74
2023/10/24 12:15:08;;;;;;;11.38;5.92;;;;;;;20.60;54.41;99871.84;2299586;76;50538;-74
2023/10/24 12:18:10;;;;;;;9.65;5.40;;;;;;;20.60;54.50;99871.34;2326228;76;51525;-75
2023/10/24 12:21:13;;;;;;;12.88;5.97;;;;;;;20.63;54.48;99873.59;2324621;76;52331;-75
2023/10/24 12:24:16;;;;;;;11.53;6.22;;;;;;;20.69;54.38;99861.15;2296915;75;52291;-76
2023/10/24 12:27:18;;;;;;;11.08;5.70;;;;;;;20.70;54.31;99861.97;2297160;76;51526;-75
2023/10/24 12:30:20;;;;;;;10.43;5.55;;;;;;;20.72;54.22;99858.55;2251385;76;52257;-75
2023/10/24 12:33:23;;;;;;;11.85;6.03;;;;;;;20.69;54.25;99850.92;2304163;76;51444;-74
2023/10/24 12:36:25;;;;;;;11.43;5.80;;;;;;;20.68;54.24;99846.07;2301180;76;51595;-74
2023/10/24 12:39:27;;;;;;;8.28;5.40;;;;;;;20.68;54.21;99833.13;2302914;76;51662;-75
2023/10/24 12:42:29;;;;;;;9.45;5.72;;;;;;;20.65;54.25;99829.86;2313045;76;51448;-75
2023/10/24 12:45:32;;;;;;;9.33;5.50;;;;;;;20.62;54.31;99826.76;2333299;74;52355;-75
2023/10/24 12:48:34;;;;;;;10.82;5.72;;;;;;;20.62;54.25;99828.92;2297195;76;51432;-75
2023/10/24 12:51:36;;;;;;;10.25;5.70;;;;;;;20.61;54.36;99827.81;2323337;76;51585;-75
2023/10/24 12:54:38;;;;;;;10.08;6.00;;;;;;;20.63;54.39;99825.21;2281161;76;52537;-75
2023/10/24 12:57:40;;;;;;;9.18;5.42;;;;;;;20.68;54.36;99822.38;2275405;76;51388;-74
2023/10/24 13:00:45;;;;;;;9.75;5.60;;;;;;;20.70;54.23;99822.46;2275236;76;51487;-74
2023/10/24 13:03:47;;;;;;;8.85;5.58;;;;;;;20.73;54.15;99830.12;2297593;76;22477;-75
2023/10/24 13:06:54;;;;;;;10.70;5.30;;;;;;;20.70;54.16;99831.05;2285710;77;52377;-75
2023/10/24 13:09:54;;;;;;;10.80;5.50;;;;;;;20.69;54.20;99821.35;2266859;76;22235;-75
2023/10/24 13:12:56;;;;;;;9.43;5.37;;;;;;;20.66;54.19;99824.77;2298592;76;50331;-75
2023/10/24 13:15:59;;;;;;;10.98;5.80;;;;;;;20.65;54.21;99816.41;2331407;76;50067;-75
2023/10/24 13:19:01;;;;;;;8.93;5.67;;;;;;;20.62;54.23;99818.69;2287544;76;51573;-75
2023/10/24 13:22:03;;;;;;;11.63;5.75;;;;;;;20.60;54.23;99809.52;2288603;76;52068;-75
2023/10/24 13:25:06;;;;;;;10.88;5.53;;;;;;;20.61;54.30;99811.16;2282534;76;52229;-74
2023/10/24 13:28:08;;;;;;;7.28;4.95;;;;;;;20.62;54.31;99810.11;2298806;76;50833;-74
2023/10/24 13:31:10;;;;;;;7.92;5.87;;;;;;;20.68;54.25;99801.72;2325468;75;51473;-75
2023/10/24 13:34:12;;;;;;;8.35;5.65;;;;;;;20.72;54.11;99798.88;2298543;76;52615;-75
2023/10/24 13:37:15;;;;;;;8.85;5.65;;;;;;;20.72;54.07;99788.13;2285915;77;50633;-74
2023/10/24 13:40:18;;;;;;;8.88;5.87;;;;;;;20.69;54.06;99784.53;2297933;76;50207;-74
2023/10/24 13:43:20;;;;;;;8.85;5.53;;;;;;;20.69;54.09;99781.03;2253249;76;52517;-75
2023/10/24 13:46:22;;;;;;;10.08;5.87;;;;;;;20.67;54.08;99773.17;2285942;76;51473;-75
2023/10/24 13:49:25;;;;;;;9.00;4.92;;;;;;;20.63;54.16;99776.02;2288630;76;51127;-74
2023/10/24 13:52:30;;;;;;;9.10;5.20;;;;;;;20.61;54.17;99768.67;2297821;76;50348;-75
2023/10/24 13:55:33;;;;;;;9.53;5.60;;;;;;;20.59;54.19;99771.57;2329886;75;22442;-74
2023/10/24 13:58:35;;;;;;;8.30;5.12;;;;;;;20.59;54.23;99770.23;2299018;75;22495;-75
2023/10/24 14:01:37;;;;;;;8.28;5.42;;;;;;;20.62;54.21;99764.94;2270525;76;52503;-75
2023/10/24 14:04:39;;;;;;;9.03;5.35;;;;;;;20.65;54.22;99757.77;2296658;76;50382;-74
2023/10/24 14:07:42;;;;;;;9.23;5.53;;;;;;;20.72;54.06;99760.42;2336610;76;50289;-75
2023/10/24 14:10:44;;;;;;;9.33;5.75;;;;;;;20.72;54.00;99757.21;2337147;75;51595;-75